aviador You're here:

CYAH Decoded Metar

LA GRANDE IV ARP in QC, CANADA
Report Time2018-01-22 16:00:00
UTC Time2018-01-22 16:34:40
Flight Rules ifr IFR
Wind270° at 06 kt
W.Decomp.*RWY 27: 5.7 kt HW 2.0 kt RCW
W.Rank270° ranks 6
Current wind is below 270° avg. (9.4)
Visibility9999 m
Phenomena:N/A
Clouds:Overcast 008 Hf
Expected CloudBase > 800 ft AGL from Temp-Dew spread
Ceiling800 ft
Temp-26°C (ISA -39)
Dew Point-28°C (83% RH)
AAT-32.0°C
QNH1030 hPa
Density Alt-4,629 ft
Elevation1,004 ft
Report Wrong Elevation
Raw Report
CYAH 221600Z AUTO 27006KT 9SM OVC008 M26/M28 A3043 RMK SLP352=

Extra information for CYAH:More info

Metar Taf Metar & Taf Last 4 Metars F.Rules Stats Wind Profile Meteogram Temp Stats Airport Information Weather charts Add Link Nearby VenuesMetar ALERT Operation Metar Decoded Social comments